Time;durP1;ratioP1;P1;durP2;ratioP2;P2;SDS_P1;SDS_P2;PMS_P1;PMS_P2;Temp;Humidity;BMP_temperature;BMP_pressure;BME280_temperature;BME280_humidity;BME280_pressure;Samples;Min_cycle;Max_cycle;Signal;HPM_P1;HPM_P2
2021/09/26 00:01:21;;;;;;;6.17;5.37;;;17.00;99.90;;;;;;4915570;29;20228;-76
2021/09/26 00:03:48;;;;;;;6.10;5.50;;;17.00;99.90;;;;;;4913799;29;20203;-77
2021/09/26 00:06:16;;;;;;;7.27;5.63;;;17.00;99.90;;;;;;4911861;29;20201;-76
2021/09/26 00:08:43;;;;;;;7.73;6.10;;;17.00;99.90;;;;;;4914961;29;20709;-77
2021/09/26 00:11:10;;;;;;;6.23;5.63;;;17.00;99.90;;;;;;4915300;29;20197;-77
2021/09/26 00:13:39;;;;;;;7.40;6.20;;;17.00;99.90;;;;;;4915471;29;20209;-76
2021/09/26 00:16:08;;;;;;;7.40;6.30;;;17.00;99.90;;;;;;4915367;29;20276;-77
2021/09/26 00:18:35;;;;;;;6.13;5.50;;;17.00;99.90;;;;;;4914257;29;20217;-76
2021/09/26 00:21:03;;;;;;;6.47;5.50;;;17.00;99.90;;;;;;4922040;29;20274;-76
2021/09/26 00:23:32;;;;;;;6.83;5.67;;;17.10;99.90;;;;;;4932631;29;20705;-77
2021/09/26 00:26:00;;;;;;;7.50;6.00;;;17.00;99.90;;;;;;4921094;29;20227;-77
2021/09/26 00:28:27;;;;;;;5.77;5.13;;;17.00;99.90;;;;;;4924356;29;20233;-77
2021/09/26 00:30:55;;;;;;;8.00;5.50;;;17.00;99.90;;;;;;4922060;29;20283;-77
2021/09/26 00:33:22;;;;;;;7.50;5.77;;;17.00;99.90;;;;;;4921021;29;20203;-77
2021/09/26 00:35:49;;;;;;;7.97;6.87;;;17.00;99.90;;;;;;4927420;29;20196;-76
2021/09/26 00:38:18;;;;;;;7.77;6.70;;;17.00;99.90;;;;;;4925049;29;20216;-77
2021/09/26 00:40:47;;;;;;;7.83;6.10;;;17.00;99.90;;;;;;4926183;29;20658;-77
2021/09/26 00:43:14;;;;;;;7.40;6.60;;;17.00;99.90;;;;;;4922285;29;20585;-76
2021/09/26 00:45:41;;;;;;;7.93;6.57;;;17.00;99.90;;;;;;4922251;29;20265;-77
2021/09/26 00:48:08;;;;;;;6.70;6.00;;;16.90;99.90;;;;;;4913567;29;20736;-77
2021/09/26 00:50:35;;;;;;;7.50;6.40;;;16.90;99.90;;;;;;4914997;29;20265;-76
2021/09/26 00:53:02;;;;;;;7.33;6.33;;;16.90;99.90;;;;;;4915087;29;20273;-76
2021/09/26 00:55:30;;;;;;;6.93;6.23;;;16.90;99.90;;;;;;4923294;29;20203;-77
2021/09/26 00:57:59;;;;;;;10.60;7.00;;;16.80;99.90;;;;;;4914673;29;20269;-76
2021/09/26 01:00:27;;;;;;;7.13;6.37;;;16.80;99.90;;;;;;4913755;29;20208;-77
2021/09/26 01:02:55;;;;;;;8.67;6.60;;;16.80;99.90;;;;;;4913704;29;20221;-76
2021/09/26 01:05:26;;;;;;;7.10;6.37;;;16.70;99.90;;;;;;4914920;29;20215;-77
2021/09/26 01:08:02;;;;;;;7.53;6.53;;;16.70;99.90;;;;;;4905740;29;20286;-76
2021/09/26 01:10:40;;;;;;;7.40;6.53;;;16.60;99.90;;;;;;4914713;29;20195;-77
2021/09/26 01:13:25;;;;;;;7.17;6.37;;;16.60;99.90;;;;;;4914981;29;20264;-77
2021/09/26 01:16:06;;;;;;;8.13;7.33;;;16.50;99.90;;;;;;4907523;29;20196;-76
2021/09/26 01:18:44;;;;;;;8.63;7.03;;;16.50;99.90;;;;;;4913275;29;20231;-77
2021/09/26 01:21:21;;;;;;;12.93;11.83;;;16.40;99.90;;;;;;4908805;29;20257;-77
2021/09/26 01:24:15;;;;;;;12.63;11.57;;;16.40;99.90;;;;;;4914801;29;20209;-76
2021/09/26 01:26:46;;;;;;;14.30;13.20;;;16.30;99.90;;;;;;4913980;29;20239;-77
2021/09/26 01:29:29;;;;;;;13.27;12.17;;;16.30;99.90;;;;;;4915675;29;20223;-77
2021/09/26 01:32:01;;;;;;;14.87;13.57;;;16.30;99.90;;;;;;4915490;29;20234;-77
2021/09/26 01:34:34;;;;;;;9.47;6.70;;;16.30;99.90;;;;;;4916908;29;20212;-76
2021/09/26 01:37:05;;;;;;;9.80;7.77;;;16.20;99.90;;;;;;4918126;29;20197;-76
2021/09/26 01:39:42;;;;;;;8.37;7.43;;;16.20;99.90;;;;;;4917635;29;20221;-77
2021/09/26 01:42:15;;;;;;;10.53;9.53;;;16.20;99.90;;;;;;4916880;29;20201;-77
2021/09/26 01:44:48;;;;;;;9.17;8.17;;;16.20;99.90;;;;;;4917502;29;20223;-77
2021/09/26 01:47:20;;;;;;;9.10;7.47;;;16.20;99.90;;;;;;4916660;29;20206;-76
2021/09/26 01:49:52;;;;;;;9.40;8.40;;;16.10;99.90;;;;;;4916406;29;20269;-76
2021/09/26 01:52:22;;;;;;;9.27;7.10;;;16.10;99.90;;;;;;4914218;29;20188;-76
2021/09/26 01:54:49;;;;;;;9.17;7.67;;;16.10;99.90;;;;;;4917626;29;20200;-76
2021/09/26 01:57:20;;;;;;;9.43;7.90;;;16.10;99.90;;;;;;4916512;29;20226;-77
2021/09/26 01:59:50;;;;;;;10.50;7.97;;;16.10;99.90;;;;;;4916105;29;20220;-77
2021/09/26 02:02:19;;;;;;;8.47;7.57;;;16.10;99.90;;;;;;4917710;29;20191;-76
2021/09/26 02:04:48;;;;;;;9.67;7.57;;;16.10;99.90;;;;;;4917453;29;20206;-77
2021/09/26 02:07:15;;;;;;;7.83;7.07;;;16.00;99.90;;;;;;4916452;29;20206;-76
2021/09/26 02:09:45;;;;;;;9.80;7.53;;;16.00;99.90;;;;;;4915849;29;20236;-76
2021/09/26 02:12:13;;;;;;;9.37;7.10;;;16.00;99.90;;;;;;4916232;29;20255;-76
2021/09/26 02:14:40;;;;;;;8.60;7.27;;;16.00;99.90;;;;;;4917177;29;20232;-76
2021/09/26 02:17:08;;;;;;;8.37;7.23;;;16.00;99.90;;;;;;4916132;29;20213;-76
2021/09/26 02:19:38;;;;;;;10.63;9.53;;;16.00;99.90;;;;;;4917018;29;20219;-76
2021/09/26 02:22:05;;;;;;;12.13;11.13;;;16.00;99.90;;;;;;4917404;29;20188;-76
2021/09/26 02:24:34;;;;;;;13.13;12.00;;;16.00;99.90;;;;;;4916056;29;20209;-77
2021/09/26 02:27:01;;;;;;;8.77;7.47;;;16.00;99.90;;;;;;4916694;29;20723;-77
2021/09/26 02:29:28;;;;;;;10.83;9.83;;;16.00;99.90;;;;;;4922234;29;20864;-77
2021/09/26 02:31:56;;;;;;;12.43;11.33;;;16.00;99.90;;;;;;4913335;29;20227;-76
2021/09/26 02:34:22;;;;;;;7.67;6.63;;;16.00;99.90;;;;;;4920150;29;20208;-77
2021/09/26 02:36:50;;;;;;;7.97;7.07;;;16.10;99.90;;;;;;4918776;29;20231;-77
2021/09/26 02:39:19;;;;;;;7.67;6.63;;;16.10;99.90;;;;;;4928827;29;20222;-76
2021/09/26 02:41:50;;;;;;;13.83;12.63;;;16.10;99.90;;;;;;4920675;29;20259;-79
2021/09/26 02:44:23;;;;;;;8.20;7.40;;;16.10;99.90;;;;;;4923400;29;20752;-77
2021/09/26 02:46:57;;;;;;;7.80;6.83;;;16.10;99.90;;;;;;4915294;29;20271;-77
2021/09/26 02:49:25;;;;;;;8.13;6.90;;;16.10;99.90;;;;;;4918844;29;20572;-77
2021/09/26 02:51:53;;;;;;;9.10;6.83;;;16.10;99.90;;;;;;4915498;29;20204;-77
2021/09/26 02:54:21;;;;;;;7.63;6.80;;;16.10;99.90;;;;;;4904754;29;20210;-80
2021/09/26 02:56:50;;;;;;;8.47;7.30;;;16.00;99.90;;;;;;4928217;29;20263;-80
2021/09/26 02:59:17;;;;;;;8.07;7.07;;;16.00;99.90;;;;;;4902056;29;20230;-76
2021/09/26 03:01:51;;;;;;;8.47;6.70;;;16.00;99.90;;;;;;4917602;29;20209;-79
2021/09/26 03:04:19;;;;;;;8.90;7.30;;;16.00;99.90;;;;;;4908586;29;20209;-79
2021/09/26 03:06:46;;;;;;;8.90;7.33;;;16.00;99.90;;;;;;4904194;29;20228;-81
2021/09/26 03:09:15;;;;;;;8.07;7.27;;;16.00;99.90;;;;;;4898288;29;20236;-78
2021/09/26 03:11:42;;;;;;;7.70;6.90;;;15.90;99.90;;;;;;4923546;29;20213;-78
2021/09/26 03:14:09;;;;;;;8.13;6.77;;;15.90;99.90;;;;;;4914661;29;20210;-77
2021/09/26 03:16:36;;;;;;;7.63;6.83;;;15.90;99.90;;;;;;4915908;29;20196;-76
2021/09/26 03:19:03;;;;;;;10.13;9.13;;;16.00;99.90;;;;;;4914278;29;20222;-77
2021/09/26 03:21:30;;;;;;;12.23;11.10;;;15.90;99.90;;;;;;4915787;29;20260;-77
2021/09/26 03:23:57;;;;;;;12.20;10.97;;;15.90;99.90;;;;;;4915977;29;20621;-77
2021/09/26 03:26:26;;;;;;;10.67;9.77;;;15.90;99.90;;;;;;4915652;29;20272;-78
2021/09/26 03:28:53;;;;;;;10.50;9.07;;;15.90;99.90;;;;;;4914098;29;20727;-78
2021/09/26 03:31:20;;;;;;;10.40;9.47;;;15.90;99.90;;;;;;4914757;29;20205;-78
2021/09/26 03:33:47;;;;;;;12.23;11.20;;;15.80;99.90;;;;;;4925773;29;20966;-78
2021/09/26 03:36:14;;;;;;;8.40;7.60;;;15.80;99.90;;;;;;4914585;29;20759;-79
2021/09/26 03:38:41;;;;;;;8.20;7.30;;;15.80;99.90;;;;;;4915403;29;20221;-78
2021/09/26 03:41:07;;;;;;;9.07;7.40;;;15.80;99.90;;;;;;4914634;29;20266;-78
2021/09/26 03:43:36;;;;;;;8.10;6.87;;;15.80;99.90;;;;;;4914262;29;20234;-78
2021/09/26 03:46:02;;;;;;;8.23;6.50;;;15.80;99.90;;;;;;4915739;29;20264;-77
2021/09/26 03:48:29;;;;;;;7.33;6.43;;;15.90;99.90;;;;;;4915252;29;20718;-78
2021/09/26 03:50:56;;;;;;;7.67;6.67;;;15.80;99.90;;;;;;4915796;29;20204;-77
2021/09/26 03:53:23;;;;;;;8.50;6.90;;;15.80;99.90;;;;;;4915272;29;20200;-78
2021/09/26 03:55:50;;;;;;;8.67;7.20;;;15.70;99.90;;;;;;4907974;29;20194;-78
2021/09/26 03:58:16;;;;;;;7.97;6.67;;;15.70;99.90;;;;;;4914020;29;20223;-78
2021/09/26 04:00:45;;;;;;;8.20;7.07;;;15.70;99.90;;;;;;4914238;29;20669;-78
2021/09/26 04:03:11;;;;;;;7.03;6.33;;;15.60;99.90;;;;;;4915430;29;20257;-78
2021/09/26 04:05:38;;;;;;;10.13;6.83;;;15.60;99.90;;;;;;4915403;29;20275;-78
2021/09/26 04:08:05;;;;;;;10.23;6.50;;;15.50;99.90;;;;;;4935554;23;20235;-76
2021/09/26 04:10:32;;;;;;;9.00;6.70;;;15.40;99.90;;;;;;4904841;29;20217;-75
2021/09/26 04:12:59;;;;;;;9.00;7.07;;;15.40;99.90;;;;;;4915156;29;20212;-75
2021/09/26 04:15:26;;;;;;;7.50;6.80;;;15.40;99.90;;;;;;4904301;29;20200;-75
2021/09/26 04:17:54;;;;;;;13.00;11.90;;;15.30;99.90;;;;;;4915962;29;20578;-75
2021/09/26 04:20:21;;;;;;;14.23;13.17;;;15.30;99.90;;;;;;4915566;29;20217;-75
2021/09/26 04:22:48;;;;;;;7.20;6.20;;;15.30;99.90;;;;;;4915414;29;20668;-75
2021/09/26 04:25:15;;;;;;;12.13;11.13;;;15.20;99.90;;;;;;4915154;29;20201;-75
2021/09/26 04:27:42;;;;;;;9.00;8.10;;;15.10;99.90;;;;;;4915231;29;20268;-76
2021/09/26 04:30:10;;;;;;;7.43;6.73;;;15.10;99.90;;;;;;4915109;29;20722;-75
2021/09/26 04:32:37;;;;;;;7.80;6.90;;;15.00;99.90;;;;;;4915299;29;20196;-75
2021/09/26 04:35:07;;;;;;;8.73;7.03;;;15.00;99.90;;;;;;4915332;29;20243;-75
2021/09/26 04:37:34;;;;;;;7.93;7.13;;;15.00;99.90;;;;;;4915161;29;20248;-75
2021/09/26 04:40:00;;;;;;;8.90;7.80;;;15.00;99.90;;;;;;4914652;29;20247;-76
2021/09/26 04:42:27;;;;;;;15.33;14.07;;;15.00;99.90;;;;;;4891873;29;20211;-77
2021/09/26 04:44:54;;;;;;;13.60;12.50;;;15.00;99.90;;;;;;4903375;29;20207;-81
2021/09/26 04:47:21;;;;;;;13.33;12.23;;;14.90;99.90;;;;;;4904687;29;20650;-80
2021/09/26 04:49:48;;;;;;;14.63;13.43;;;14.90;99.90;;;;;;4923341;29;20226;-81
2021/09/26 04:52:16;;;;;;;14.57;13.37;;;14.90;99.90;;;;;;4909197;29;20200;-80
2021/09/26 04:54:43;;;;;;;13.90;12.73;;;14.80;99.90;;;;;;4907779;29;20204;-80
2021/09/26 04:57:10;;;;;;;13.67;12.50;;;14.80;99.90;;;;;;4911069;29;20252;-79
2021/09/26 04:59:36;;;;;;;13.50;12.40;;;14.70;99.90;;;;;;4916316;29;20222;-80
2021/09/26 05:02:04;;;;;;;15.33;14.07;;;14.70;99.90;;;;;;4912537;29;20207;-79
2021/09/26 05:04:31;;;;;;;14.57;13.47;;;14.70;99.90;;;;;;4909905;29;20208;-79
2021/09/26 05:06:58;;;;;;;16.03;14.63;;;14.60;99.90;;;;;;4906889;29;20227;-80
2021/09/26 05:09:26;;;;;;;14.77;13.77;;;14.70;99.90;;;;;;4920862;29;20380;-78
2021/09/26 05:11:54;;;;;;;16.13;14.97;;;14.70;99.90;;;;;;4928569;29;20259;-78
2021/09/26 05:14:21;;;;;;;15.23;14.10;;;14.60;99.90;;;;;;4919000;29;20200;-78
2021/09/26 05:16:48;;;;;;;16.17;14.87;;;14.60;99.90;;;;;;4907046;29;20203;-74
2021/09/26 05:19:15;;;;;;;15.53;14.43;;;14.60;99.90;;;;;;4921125;29;20714;-75
2021/09/26 05:21:42;;;;;;;16.50;15.10;;;14.50;99.90;;;;;;4937346;29;20226;-75
2021/09/26 05:24:09;;;;;;;16.20;14.93;;;14.50;99.90;;;;;;4912138;29;20275;-76
2021/09/26 05:26:38;;;;;;;14.37;13.23;;;14.50;99.90;;;;;;4917961;29;20700;-75
2021/09/26 05:29:06;;;;;;;14.43;13.33;;;14.50;99.90;;;;;;4917692;29;20220;-75
2021/09/26 05:31:33;;;;;;;16.10;14.80;;;14.50;99.90;;;;;;4906815;29;20208;-77
2021/09/26 05:34:01;;;;;;;17.03;15.67;;;14.50;99.90;;;;;;4907157;29;20203;-77
2021/09/26 05:36:27;;;;;;;16.53;15.23;;;14.60;99.90;;;;;;4926464;29;20192;-77
2021/09/26 05:38:54;;;;;;;16.33;15.03;;;14.50;99.90;;;;;;4908683;29;20223;-78
2021/09/26 05:41:21;;;;;;;15.70;14.50;;;14.60;99.90;;;;;;4908678;29;20227;-77
2021/09/26 05:43:49;;;;;;;14.50;13.30;;;14.60;99.90;;;;;;4932927;29;20196;-77
2021/09/26 05:46:16;;;;;;;15.90;14.67;;;14.60;99.90;;;;;;4909636;29;20229;-77
2021/09/26 05:48:43;;;;;;;15.23;14.03;;;14.70;99.90;;;;;;4917538;29;20219;-77
2021/09/26 05:51:10;;;;;;;14.70;13.50;;;14.70;99.90;;;;;;4917734;29;20677;-77
2021/09/26 05:53:37;;;;;;;15.70;14.40;;;14.80;99.90;;;;;;4903758;29;20696;-77
2021/09/26 05:56:04;;;;;;;16.20;14.80;;;14.80;99.90;;;;;;4917409;29;20572;-78
2021/09/26 05:58:31;;;;;;;14.57;13.47;;;14.90;99.90;;;;;;4917138;29;20768;-78
2021/09/26 06:00:59;;;;;;;14.50;13.40;;;15.00;99.90;;;;;;4917717;29;20200;-78
2021/09/26 06:03:26;;;;;;;13.70;12.63;;;15.00;99.90;;;;;;4911371;29;20661;-77
2021/09/26 06:05:53;;;;;;;13.83;12.83;;;15.10;99.90;;;;;;4917894;29;20201;-77
2021/09/26 06:08:20;;;;;;;13.83;12.73;;;15.30;99.90;;;;;;4902865;29;20287;-80
2021/09/26 06:10:46;;;;;;;13.97;12.87;;;15.40;99.90;;;;;;4904647;29;20203;-76
2021/09/26 06:13:13;;;;;;;15.40;14.30;;;15.50;99.90;;;;;;4918386;29;20230;-77
2021/09/26 06:15:40;;;;;;;15.70;14.40;;;15.60;99.90;;;;;;4891916;29;20240;-77
2021/09/26 06:18:09;;;;;;;15.07;13.97;;;15.70;99.90;;;;;;4917037;29;20192;-77
2021/09/26 06:20:35;;;;;;;15.40;14.20;;;15.80;99.90;;;;;;4917737;29;20690;-77
2021/09/26 06:23:02;;;;;;;15.60;14.50;;;15.90;99.90;;;;;;4913406;29;20198;-77
2021/09/26 06:25:29;;;;;;;15.73;14.57;;;15.90;99.90;;;;;;4916647;29;20303;-77
2021/09/26 06:27:56;;;;;;;15.40;14.13;;;15.80;99.90;;;;;;4916728;29;20219;-78
2021/09/26 06:30:23;;;;;;;15.60;14.40;;;15.80;99.90;;;;;;4916614;29;20249;-77
2021/09/26 06:32:50;;;;;;;16.97;15.50;;;15.80;99.90;;;;;;4902618;29;20205;-77
2021/09/26 06:35:18;;;;;;;16.00;14.73;;;15.80;99.90;;;;;;4912254;29;21159;-83
2021/09/26 06:37:45;;;;;;;12.23;11.07;;;15.90;99.90;;;;;;4920789;29;20626;-77
2021/09/26 06:40:13;;;;;;;7.57;6.77;;;16.10;99.90;;;;;;4925871;29;20724;-78
2021/09/26 06:42:40;;;;;;;8.33;7.53;;;16.20;99.90;;;;;;4908929;29;20276;-77
2021/09/26 06:45:09;;;;;;;7.37;6.57;;;16.30;99.90;;;;;;4920096;29;20204;-77
2021/09/26 06:47:37;;;;;;;9.47;8.67;;;16.40;99.90;;;;;;4907905;29;20228;-77
2021/09/26 06:50:05;;;;;;;6.93;6.23;;;16.50;99.90;;;;;;4916296;29;20230;-78
2021/09/26 06:52:33;;;;;;;7.47;6.70;;;16.50;99.90;;;;;;4917373;29;20210;-77
2021/09/26 06:55:00;;;;;;;10.63;9.77;;;16.60;99.90;;;;;;4916341;29;20274;-77
2021/09/26 06:57:27;;;;;;;7.77;6.97;;;16.70;99.90;;;;;;4915846;29;20202;-76
2021/09/26 06:59:54;;;;;;;8.33;7.60;;;16.80;99.90;;;;;;4904897;29;20274;-78
2021/09/26 07:02:22;;;;;;;7.83;7.03;;;17.00;99.90;;;;;;4900877;29;20203;-78
2021/09/26 07:05:02;;;;;;;14.83;13.77;;;17.20;99.90;;;;;;4918106;29;20219;-78
2021/09/26 07:07:28;;;;;;;16.40;14.83;;;17.50;99.90;;;;;;4913035;29;20211;-78
2021/09/26 07:09:57;;;;;;;8.63;7.73;;;17.80;99.90;;;;;;4915269;29;20723;-77
2021/09/26 07:12:23;;;;;;;13.53;12.33;;;18.20;99.90;;;;;;4907350;29;20208;-77
2021/09/26 07:14:52;;;;;;;14.13;12.93;;;18.50;99.90;;;;;;4902313;29;20286;-78
2021/09/26 07:17:19;;;;;;;9.27;8.00;;;18.90;99.90;;;;;;4916555;29;20287;-78
2021/09/26 07:19:46;;;;;;;10.60;9.60;;;19.20;99.90;;;;;;4906693;29;20254;-77
2021/09/26 07:22:13;;;;;;;11.73;10.53;;;19.50;99.90;;;;;;4908198;29;20644;-77
2021/09/26 07:24:40;;;;;;;8.97;8.07;;;19.80;99.90;;;;;;4915751;29;20275;-77
2021/09/26 07:27:08;;;;;;;13.20;12.10;;;20.10;99.90;;;;;;4915122;29;20562;-77
2021/09/26 07:29:35;;;;;;;13.63;12.53;;;20.30;99.90;;;;;;4912822;29;20348;-78
2021/09/26 07:32:02;;;;;;;8.10;7.27;;;20.50;99.90;;;;;;4928605;29;20663;-78
2021/09/26 07:34:29;;;;;;;11.70;9.53;;;20.60;99.90;;;;;;4908372;29;20213;-78
2021/09/26 07:36:55;;;;;;;9.77;6.90;;;20.50;99.90;;;;;;4915910;29;20199;-77
2021/09/26 07:39:22;;;;;;;8.50;6.73;;;20.50;99.90;;;;;;4915810;29;20278;-77
2021/09/26 07:41:49;;;;;;;8.20;6.53;;;20.90;99.90;;;;;;4916195;29;20199;-78
2021/09/26 07:44:17;;;;;;;8.77;6.73;;;21.30;99.90;;;;;;4907056;29;20264;-77
2021/09/26 07:46:44;;;;;;;8.03;7.23;;;21.30;99.90;;;;;;4916555;29;20216;-75
2021/09/26 07:49:11;;;;;;;10.67;9.67;;;21.30;99.90;;;;;;4915185;29;20226;-75
2021/09/26 07:51:38;;;;;;;9.57;8.77;;;21.20;99.90;;;;;;4915422;29;20251;-76
2021/09/26 07:54:05;;;;;;;7.77;6.93;;;21.10;99.90;;;;;;4906482;29;20223;-75
2021/09/26 07:56:32;;;;;;;8.43;7.00;;;21.10;99.90;;;;;;4915977;29;20286;-78
2021/09/26 07:58:59;;;;;;;11.93;10.83;;;21.00;99.90;;;;;;4909479;29;20292;-77
2021/09/26 08:01:27;;;;;;;13.03;11.93;;;20.90;99.90;;;;;;4904072;29;20602;-77
2021/09/26 08:03:54;;;;;;;12.90;11.90;;;20.80;99.90;;;;;;4913594;29;20563;-77
2021/09/26 08:06:20;;;;;;;8.37;6.53;;;20.80;99.90;;;;;;4916008;29;20215;-77
2021/09/26 08:08:47;;;;;;;12.63;11.60;;;20.70;99.90;;;;;;4908724;29;20228;-77
2021/09/26 08:11:14;;;;;;;7.77;7.00;;;20.50;99.90;;;;;;4911196;29;20640;-77
2021/09/26 08:13:41;;;;;;;12.63;11.63;;;20.40;99.90;;;;;;4914941;29;20203;-77
2021/09/26 08:16:08;;;;;;;8.30;6.00;;;20.40;99.90;;;;;;4911981;29;20611;-78
2021/09/26 08:18:36;;;;;;;7.53;6.03;;;20.30;99.90;;;;;;4906895;29;20219;-77
2021/09/26 08:21:03;;;;;;;6.90;6.20;;;20.40;99.90;;;;;;4909692;29;20201;-77
2021/09/26 08:23:30;;;;;;;7.47;6.23;;;20.30;99.90;;;;;;4914778;29;20203;-78
2021/09/26 08:25:56;;;;;;;11.87;10.93;;;20.20;99.90;;;;;;4919896;29;20203;-78
2021/09/26 08:28:24;;;;;;;12.40;11.40;;;20.00;99.90;;;;;;4907389;29;20254;-76
2021/09/26 08:30:51;;;;;;;12.53;11.53;;;19.90;99.90;;;;;;4903316;29;20657;-77
2021/09/26 08:33:18;;;;;;;12.07;11.07;;;19.80;99.90;;;;;;4914449;29;20205;-77
2021/09/26 08:35:46;;;;;;;12.77;11.77;;;19.70;99.90;;;;;;4901706;29;20280;-76
2021/09/26 08:38:13;;;;;;;12.07;11.07;;;19.60;99.90;;;;;;4908864;29;20680;-77
2021/09/26 08:40:40;;;;;;;13.33;12.13;;;19.50;99.90;;;;;;4909626;29;20231;-81
2021/09/26 08:43:06;;;;;;;13.37;12.37;;;19.40;99.90;;;;;;4909846;29;20210;-77
2021/09/26 08:45:38;;;;;;;13.23;12.23;;;19.40;99.90;;;;;;4909449;29;20628;-77
2021/09/26 08:48:06;;;;;;;13.77;12.40;;;19.40;99.90;;;;;;4917020;29;20284;-77
2021/09/26 08:50:34;;;;;;;13.30;12.20;;;19.40;99.90;;;;;;4915888;29;20662;-77
2021/09/26 08:53:03;;;;;;;12.93;11.93;;;19.40;99.90;;;;;;4900521;29;20261;-77
2021/09/26 08:55:30;;;;;;;13.27;12.27;;;19.30;99.90;;;;;;4919118;29;20255;-77
2021/09/26 08:57:57;;;;;;;13.53;12.40;;;19.30;99.90;;;;;;4890462;29;20210;-76
2021/09/26 09:00:25;;;;;;;14.23;13.03;;;19.30;99.90;;;;;;4901496;29;20202;-77
2021/09/26 09:02:52;;;;;;;13.70;12.70;;;19.30;99.90;;;;;;4886312;29;20216;-77
2021/09/26 09:05:30;;;;;;;14.73;13.50;;;19.30;99.90;;;;;;4885825;29;20209;-77
2021/09/26 09:08:08;;;;;;;13.97;12.77;;;19.20;99.90;;;;;;4890620;29;20249;-78
2021/09/26 09:10:46;;;;;;;14.17;13.07;;;19.10;99.90;;;;;;4886683;29;20225;-77
2021/09/26 09:13:15;;;;;;;15.27;14.07;;;19.10;99.90;;;;;;4904110;29;20202;-77
2021/09/26 09:15:52;;;;;;;15.00;13.70;;;19.10;99.90;;;;;;4887767;29;20352;-77
2021/09/26 09:18:19;;;;;;;13.93;12.83;;;19.00;99.90;;;;;;4899357;29;20220;-78
2021/09/26 09:20:46;;;;;;;14.90;13.70;;;19.00;99.90;;;;;;4884613;29;20200;-78
2021/09/26 09:23:18;;;;;;;15.23;13.93;;;19.00;99.90;;;;;;4901050;29;20632;-78
2021/09/26 09:25:47;;;;;;;15.43;14.23;;;19.00;99.90;;;;;;4903217;29;20216;-77
2021/09/26 09:28:16;;;;;;;14.80;13.70;;;19.10;99.90;;;;;;4886415;29;20229;-76
2021/09/26 09:30:46;;;;;;;15.63;14.43;;;19.10;99.90;;;;;;4885611;29;20701;-78
2021/09/26 09:33:14;;;;;;;14.73;13.53;;;19.10;99.90;;;;;;4900324;29;20693;-77
2021/09/26 09:35:43;;;;;;;15.90;14.47;;;19.20;99.90;;;;;;4902931;29;20566;-78
2021/09/26 09:38:11;;;;;;;16.83;15.33;;;19.40;99.90;;;;;;4901476;29;20281;-77
2021/09/26 09:40:42;;;;;;;15.57;14.27;;;19.50;99.90;;;;;;4901811;29;20201;-77
2021/09/26 09:43:09;;;;;;;16.20;14.80;;;19.60;99.90;;;;;;4900501;29;20211;-77
2021/09/26 09:45:39;;;;;;;16.10;14.80;;;19.70;99.90;;;;;;4901252;29;20199;-77
2021/09/26 09:48:12;;;;;;;17.17;15.77;;;19.80;99.90;;;;;;4886719;29;20226;-78
2021/09/26 09:50:45;;;;;;;17.37;15.97;;;19.70;99.90;;;;;;4884926;29;20203;-77
2021/09/26 09:53:24;;;;;;;17.10;15.70;;;19.70;99.90;;;;;;4903085;29;20726;-77
2021/09/26 09:56:07;;;;;;;18.10;16.50;;;19.80;99.90;;;;;;4883844;29;20206;-77
2021/09/26 09:58:37;;;;;;;16.70;15.40;;;19.80;99.90;;;;;;4901397;29;20241;-77
2021/09/26 10:01:07;;;;;;;17.03;15.53;;;19.90;99.90;;;;;;4885937;29;20622;-77
2021/09/26 10:03:47;;;;;;;16.97;15.67;;;19.90;99.90;;;;;;4883956;29;20606;-76
2021/09/26 10:06:28;;;;;;;18.03;16.50;;;19.90;99.90;;;;;;4906447;29;20211;-77
2021/09/26 10:13:08;;;;;;;17.70;16.10;;;19.90;99.90;;;;;;4917853;29;20612;-78
2021/09/26 10:15:35;;;;;;;17.37;15.97;;;19.90;99.90;;;;;;4933011;29;20202;-81
2021/09/26 10:18:02;;;;;;;17.87;16.37;;;19.80;99.90;;;;;;4935277;29;20203;-81
2021/09/26 10:20:31;;;;;;;19.13;17.27;;;19.60;99.90;;;;;;4926630;29;20226;-82
2021/09/26 10:29:49;;;;;;;18.83;17.23;;;19.50;99.90;;;;;;4851698;29;20223;-82
2021/09/26 10:32:17;;;;;;;18.03;16.60;;;19.60;99.90;;;;;;4927204;29;20226;-83
2021/09/26 10:34:44;;;;;;;18.33;16.73;;;19.60;99.90;;;;;;4917834;29;20204;-82
2021/09/26 10:37:13;;;;;;;18.00;16.53;;;19.70;99.90;;;;;;4923681;29;20215;-82
2021/09/26 10:39:40;;;;;;;17.60;16.10;;;19.90;99.90;;;;;;4917250;29;20224;-82
2021/09/26 10:42:10;;;;;;;17.07;15.67;;;19.90;99.90;;;;;;4915342;29;20196;-82
2021/09/26 10:44:43;;;;;;;17.17;15.67;;;20.00;99.90;;;;;;4924563;29;20197;-82
2021/09/26 10:47:17;;;;;;;16.97;15.67;;;20.10;99.90;;;;;;4911976;29;20674;-82
2021/09/26 10:49:46;;;;;;;16.83;15.50;;;20.20;99.90;;;;;;4918215;29;20232;-82
2021/09/26 10:52:28;;;;;;;17.37;15.97;;;20.20;99.90;;;;;;4915465;29;20204;-83
2021/09/26 10:54:57;;;;;;;16.70;15.37;;;20.20;99.90;;;;;;4911218;29;20214;-82
2021/09/26 10:57:30;;;;;;;16.50;15.17;;;20.10;99.90;;;;;;4913516;29;20213;-78
2021/09/26 10:59:59;;;;;;;17.13;15.83;;;19.90;99.90;;;;;;4920662;29;20223;-78
2021/09/26 11:02:53;;;;;;;16.33;14.83;;;19.80;99.90;;;;;;4930881;28;20199;-79
2021/09/26 11:05:32;;;;;;;16.83;15.43;;;19.70;99.90;;;;;;4908544;29;20212;-78
2021/09/26 11:07:59;;;;;;;17.17;15.70;;;19.60;99.90;;;;;;4906219;29;20215;-79
2021/09/26 11:10:45;;;;;;;16.30;15.10;;;19.60;99.90;;;;;;4913217;29;20666;-79
2021/09/26 11:13:22;;;;;;;17.10;15.80;;;19.60;99.90;;;;;;4905747;29;20207;-78
2021/09/26 11:19:52;;;;;;;17.90;16.40;;;19.80;99.90;;;;;;4909007;29;20233;-79
2021/09/26 11:22:19;;;;;;;17.17;15.77;;;20.10;99.90;;;;;;4915077;29;20226;-79
2021/09/26 11:25:00;;;;;;;16.27;15.07;;;20.20;99.90;;;;;;4903405;29;20207;-80
2021/09/26 11:27:39;;;;;;;16.53;15.27;;;20.40;99.90;;;;;;4906508;29;20286;-79
2021/09/26 11:30:25;;;;;;;17.27;15.97;;;20.50;99.90;;;;;;4902794;29;20239;-79
2021/09/26 11:33:06;;;;;;;17.30;15.93;;;20.70;99.90;;;;;;4900523;29;20231;-76
2021/09/26 11:35:40;;;;;;;16.77;15.53;;;20.90;99.90;;;;;;4911289;29;20576;-78
2021/09/26 11:38:13;;;;;;;17.13;15.70;;;21.20;99.90;;;;;;4902173;29;20201;-80
2021/09/26 11:40:59;;;;;;;16.53;15.23;;;21.40;99.90;;;;;;4912026;29;20220;-79
2021/09/26 11:43:29;;;;;;;17.07;15.50;;;21.50;99.90;;;;;;4904020;29;20215;-78
2021/09/26 11:45:59;;;;;;;16.53;15.20;;;21.60;99.90;;;;;;4902144;29;20256;-79
2021/09/26 11:48:37;;;;;;;16.00;14.70;;;21.70;99.90;;;;;;4913915;29;20208;-79
2021/09/26 11:51:11;;;;;;;10.10;8.93;;;21.70;99.90;;;;;;4898869;29;20212;-79
2021/09/26 11:53:39;;;;;;;10.20;9.20;;;21.80;99.90;;;;;;4912285;29;20212;-80
2021/09/26 11:56:14;;;;;;;15.90;14.63;;;21.70;99.90;;;;;;4920645;29;20208;-80
2021/09/26 11:58:41;;;;;;;11.93;10.83;;;21.70;99.90;;;;;;4916673;29;20196;-78
2021/09/26 12:01:08;;;;;;;11.00;10.00;;;21.80;99.90;;;;;;4916788;29;20268;-79
2021/09/26 12:03:36;;;;;;;9.87;8.93;;;21.90;99.90;;;;;;4922258;29;20204;-79
2021/09/26 12:06:03;;;;;;;9.37;8.47;;;22.00;99.90;;;;;;4910874;29;20204;-80
2021/09/26 12:08:39;;;;;;;14.70;13.50;;;22.10;99.90;;;;;;4904191;29;20227;-79
2021/09/26 12:11:08;;;;;;;15.57;14.40;;;22.10;99.90;;;;;;4911509;29;20681;-81
2021/09/26 12:13:46;;;;;;;13.03;12.03;;;22.10;99.90;;;;;;4913045;29;20677;-78
2021/09/26 12:16:14;;;;;;;8.00;7.20;;;22.10;99.90;;;;;;4923435;29;20218;-78
2021/09/26 12:18:41;;;;;;;7.50;6.80;;;22.00;99.90;;;;;;4913977;29;20216;-79
2021/09/26 12:21:10;;;;;;;12.77;11.77;;;22.00;99.90;;;;;;4913522;29;20208;-78
2021/09/26 12:23:48;;;;;;;13.13;12.23;;;22.10;99.90;;;;;;4905914;29;20206;-78
2021/09/26 12:26:20;;;;;;;9.83;8.93;;;22.10;99.90;;;;;;4908206;29;20204;-79
2021/09/26 12:29:03;;;;;;;12.53;11.53;;;22.10;99.90;;;;;;4898101;29;20229;-79
2021/09/26 12:31:32;;;;;;;12.03;11.13;;;22.30;99.90;;;;;;4909186;29;20204;-79
2021/09/26 12:34:00;;;;;;;9.90;9.10;;;22.40;99.90;;;;;;4907681;29;20208;-79
2021/09/26 12:36:31;;;;;;;11.67;10.77;;;22.50;99.90;;;;;;4914174;29;20204;-78
2021/09/26 12:39:00;;;;;;;8.67;7.93;;;22.50;99.90;;;;;;4905938;29;20215;-79
2021/09/26 12:41:30;;;;;;;7.60;6.90;;;22.70;99.90;;;;;;4909614;29;20259;-79
2021/09/26 12:43:59;;;;;;;6.93;6.23;;;22.70;99.90;;;;;;4914161;29;20248;-78
2021/09/26 12:46:29;;;;;;;8.80;8.00;;;22.90;99.90;;;;;;4907050;29;20750;-80
2021/09/26 12:48:56;;;;;;;12.67;11.77;;;23.10;99.90;;;;;;4902159;29;20225;-78
2021/09/26 12:51:26;;;;;;;13.37;12.37;;;23.30;99.90;;;;;;4902337;29;20241;-79
2021/09/26 12:53:56;;;;;;;12.87;11.97;;;23.50;99.90;;;;;;4911647;29;20219;-79
2021/09/26 12:56:28;;;;;;;8.53;7.73;;;23.70;99.90;;;;;;4907587;29;20200;-79
2021/09/26 12:58:57;;;;;;;10.83;9.83;;;23.80;99.90;;;;;;4906206;29;20567;-79
2021/09/26 13:01:27;;;;;;;12.87;11.80;;;23.70;99.90;;;;;;4900728;29;20200;-79